createdAt,value
2023-04-10T00:08:36.638Z,101345.25
2023-04-10T00:12:08.709Z,101334.97
2023-04-10T00:15:58.411Z,101298.31
2023-04-10T00:19:35.505Z,101332.13
2023-04-10T00:23:28.268Z,101328.81
2023-04-10T00:27:21.180Z,101308.72
2023-04-10T00:30:42.672Z,101302.16
2023-04-10T00:34:17.684Z,101282.66
2023-04-10T00:42:08.034Z,101325.75
2023-04-10T00:46:08.708Z,101277.34
2023-04-10T00:49:49.549Z,101274.13
2023-04-10T01:02:43.259Z,101263.53
2023-04-10T01:06:56.138Z,101304.44
2023-04-10T01:10:40.766Z,101307.66
2023-04-10T01:26:11.441Z,101300.88
2023-04-10T01:29:53.699Z,101300.78
2023-04-10T01:33:14.025Z,101276.25
2023-04-10T01:36:30.356Z,101252.72
2023-04-10T01:39:39.362Z,101292.94
2023-04-10T01:43:01.063Z,101258.63
2023-04-10T01:46:08.694Z,101300.25
2023-04-10T01:49:23.233Z,101304.19
2023-04-10T01:52:58.570Z,101304.63
2023-04-10T01:56:20.954Z,101300.25
2023-04-10T01:59:35.222Z,101273.16
2023-04-10T02:02:59.323Z,101273.16
2023-04-10T02:06:44.617Z,101292.88
2023-04-10T02:10:44.590Z,101269.94
2023-04-10T02:14:43.538Z,101303.78
2023-04-10T02:18:02.888Z,101311.06
2023-04-10T02:21:31.330Z,101301.41
2023-04-10T02:24:49.138Z,101264.72
2023-04-10T02:28:13.718Z,101262.03
2023-04-10T02:31:25.736Z,101296.09
2023-04-10T02:34:35.115Z,101276.31
2023-04-10T02:37:52.214Z,101279.19
2023-04-10T02:41:27.262Z,101304.81
2023-04-10T02:44:45.428Z,101259.91
2023-04-10T02:47:57.671Z,101286.28
2023-04-10T02:55:23.878Z,101251.75
2023-04-10T02:58:52.029Z,101269.03
2023-04-10T03:06:56.217Z,101247.38
2023-04-10T03:10:43.755Z,101261.56
2023-04-10T03:14:13.159Z,101273.84
2023-04-10T03:17:39.692Z,101248.19
2023-04-10T03:21:09.105Z,101271.47
2023-04-10T03:24:15.258Z,101283.72
2023-04-10T03:27:34.117Z,101279.13
2023-04-10T03:30:55.100Z,101257.69
2023-04-10T03:34:28.657Z,101281.44
2023-04-10T03:37:34.896Z,101280.69
2023-04-10T03:40:41.980Z,101248.25
2023-04-10T03:43:50.882Z,101276.25
2023-04-10T03:46:55.668Z,101264.88
2023-04-10T03:50:15.053Z,101284.13
2023-04-10T03:53:37.779Z,101296.28
2023-04-10T03:57:05.886Z,101270.16
2023-04-10T04:00:53.661Z,101273.34
2023-04-10T04:04:30.219Z,101289.06
2023-04-10T04:08:10.889Z,101265.72
2023-04-10T04:11:24.495Z,101290.22
2023-04-10T04:14:33.397Z,101271.38
2023-04-10T04:18:07.999Z,101306.72
2023-04-10T04:21:35.393Z,101306.72
2023-04-10T04:25:09.941Z,101308.28
2023-04-10T04:28:19.526Z,101304.34
2023-04-10T04:31:49.114Z,101303.66
2023-04-10T04:39:27.476Z,101284.41
2023-04-10T04:43:27.445Z,101309.06
2023-04-10T05:15:17.071Z,101346.50
2023-04-10T05:18:40.868Z,101322.38
2023-04-10T05:22:32.604Z,101338.09
2023-04-10T05:25:53.894Z,101344.31
2023-04-10T05:29:52.841Z,101325.53
2023-04-10T05:33:04.133Z,101344.03
2023-04-10T05:40:12.296Z,101316.88
2023-04-10T05:43:18.838Z,101318.56
2023-04-10T05:46:25.213Z,101319.16
2023-04-10T05:49:44.010Z,101349.22
2023-04-10T05:53:04.057Z,101326.31
2023-04-10T05:56:11.531Z,101347.28
2023-04-10T05:59:15.341Z,101334.63
2023-04-10T06:03:00.398Z,101320.44
2023-04-10T06:06:09.686Z,101336.69
2023-04-10T06:14:39.109Z,101351.53
2023-04-10T06:31:42.912Z,101338.22
2023-04-10T06:39:25.874Z,101336.38
2023-04-10T06:43:10.726Z,101328.41
2023-04-10T07:31:10.739Z,101317.59
2023-04-10T07:35:04.165Z,101318.63
2023-04-10T07:38:26.516Z,101290.28
2023-04-10T07:42:08.882Z,101262.34
2023-04-10T07:45:18.200Z,101305.25
2023-04-10T07:48:28.915Z,101278.56
2023-04-10T07:51:57.265Z,101279.16
2023-04-10T07:55:06.177Z,101289.72
2023-04-10T07:58:19.725Z,101302.06
2023-04-10T08:01:50.115Z,101303.22
2023-04-10T08:05:14.217Z,101299.41
2023-04-10T08:08:29.897Z,101298.19
2023-04-10T08:11:49.493Z,101284.31
2023-04-10T08:15:08.076Z,101262.84
2023-04-10T08:18:26.704Z,101285.97
2023-04-10T08:25:34.064Z,101293.47
2023-04-10T08:29:06.897Z,101299.91
2023-04-10T08:32:41.629Z,101291.00
2023-04-10T08:36:01.328Z,101258.75
2023-04-10T08:39:23.164Z,101251.31
2023-04-10T08:42:33.903Z,101283.59
2023-04-10T08:46:01.365Z,101282.63
2023-04-10T08:49:52.202Z,101259.44
2023-04-10T08:53:14.034Z,101275.72
2023-04-10T08:56:48.633Z,101275.41
2023-04-10T09:07:49.157Z,101248.16
2023-04-10T09:11:09.076Z,101267.81
2023-04-10T09:19:55.043Z,101254.88
2023-04-10T09:23:42.021Z,101249.97
2023-04-10T09:27:53.095Z,101214.16
2023-04-10T09:32:07.141Z,101235.88
2023-04-10T09:39:58.388Z,101224.81
2023-04-10T10:06:41.336Z,101215.03
2023-04-10T10:23:27.338Z,101215.38
2023-04-10T10:35:22.971Z,101183.06
2023-04-10T10:42:45.083Z,101185.81
2023-04-10T10:45:56.583Z,101199.47
2023-04-10T10:49:01.364Z,101173.69
2023-04-10T10:52:38.938Z,101197.16
2023-04-10T10:55:42.916Z,101194.75
2023-04-10T10:59:12.705Z,101193.75
2023-04-10T11:02:28.305Z,101186.63
2023-04-10T11:06:15.367Z,101175.47
2023-04-10T11:10:11.016Z,101180.88
2023-04-10T11:13:28.276Z,101170.19
2023-04-10T11:16:51.733Z,101177.56
2023-04-10T11:20:25.960Z,101171.19
2023-04-10T11:23:37.064Z,101157.75
2023-04-10T11:26:48.739Z,101143.13
2023-04-10T11:30:38.583Z,101173.66
2023-04-10T11:34:05.898Z,101132.44
2023-04-10T11:38:20.405Z,101141.78
2023-04-10T11:41:12.838Z,101146.38
2023-04-10T11:44:31.759Z,101147.94
2023-04-10T11:47:48.787Z,101171.75
2023-04-10T11:50:57.171Z,101179.59
2023-04-10T11:54:56.099Z,101170.56
2023-04-10T11:58:32.642Z,101161.72
2023-04-10T12:01:44.334Z,101178.53
2023-04-10T12:05:10.939Z,101178.19
2023-04-10T12:08:17.074Z,101180.22
2023-04-10T12:11:37.234Z,101177.97
2023-04-10T12:14:49.003Z,101179.94
2023-04-10T12:17:55.316Z,101170.31
2023-04-10T12:21:04.748Z,101160.31
2023-04-10T12:24:52.983Z,101161.34
2023-04-10T12:28:05.379Z,101144.44
2023-04-10T12:31:43.565Z,101144.41
2023-04-10T12:35:04.936Z,101135.22
2023-04-10T12:38:08.928Z,101134.66
2023-04-10T12:41:12.827Z,101121.53
2023-04-10T12:44:17.126Z,101115.16
2023-04-10T12:47:26.916Z,101109.56
2023-04-10T12:50:32.081Z,101100.03
2023-04-10T12:53:56.741Z,101105.44
2023-04-10T12:57:09.548Z,101099.00
2023-04-10T13:00:15.409Z,101098.50
2023-04-10T13:03:19.891Z,101069.94
2023-04-10T13:06:22.972Z,101085.06
2023-04-10T13:09:26.442Z,101078.13
2023-04-10T13:12:30.437Z,101072.78
2023-04-10T13:15:35.673Z,101068.81
2023-04-10T13:18:44.976Z,101064.38
2023-04-10T13:21:56.136Z,101057.22
2023-04-10T13:25:06.472Z,101057.16
2023-04-10T13:28:12.727Z,101044.44
2023-04-10T13:31:40.208Z,101048.50
2023-04-10T13:34:53.164Z,101029.06
2023-04-10T13:37:59.913Z,101033.59
2023-04-10T13:41:04.222Z,101031.28
2023-04-10T13:44:10.883Z,101026.47
2023-04-10T13:47:40.611Z,101020.59
2023-04-10T13:50:44.048Z,101002.47
2023-04-10T13:53:49.277Z,101008.59
2023-04-10T14:00:47.744Z,100996.88
2023-04-10T14:04:01.341Z,100998.03
2023-04-10T14:07:12.292Z,100980.75
2023-04-10T14:10:36.746Z,100977.03
2023-04-10T14:13:41.149Z,100973.91
2023-04-10T14:17:09.296Z,100963.84
2023-04-10T14:21:08.844Z,100963.47
2023-04-10T14:38:42.295Z,100943.84
2023-04-10T15:21:49.358Z,100895.63
2023-04-10T15:25:23.784Z,100873.81
2023-04-10T15:28:50.965Z,100846.81
2023-04-10T15:32:38.364Z,100865.47
2023-04-10T17:10:43.016Z,100812.19
2023-04-10T17:25:53.303Z,100835.91
2023-04-10T17:29:35.590Z,100791.31
2023-04-10T17:33:22.759Z,100835.53
2023-04-10T17:45:24.578Z,100847.56
2023-04-10T17:48:52.301Z,100852.47
2023-04-10T17:52:06.030Z,100848.91
2023-04-10T17:55:42.008Z,100833.16
2023-04-10T18:02:32.217Z,100817.31
2023-04-10T18:05:49.264Z,100860.88
2023-04-10T18:09:14.324Z,100852.72
2023-04-10T18:12:19.140Z,100856.53
2023-04-10T18:15:37.311Z,100824.38
2023-04-10T18:18:47.445Z,100860.81
2023-04-10T18:22:19.470Z,100863.00
2023-04-10T18:25:30.071Z,100845.00
2023-04-10T18:28:38.773Z,100839.09
2023-04-10T18:32:13.274Z,100860.88
2023-04-10T18:35:20.193Z,100840.72
2023-04-10T18:38:53.570Z,100866.47
2023-04-10T18:42:08.693Z,100844.75
2023-04-10T18:45:20.323Z,100873.53
2023-04-10T18:48:27.331Z,100875.94
2023-04-10T18:51:39.050Z,100864.50
2023-04-10T18:54:45.976Z,100882.81
2023-04-10T18:57:56.966Z,100895.72
2023-04-10T19:01:00.577Z,100879.06
2023-04-10T19:04:10.855Z,100884.19
2023-04-10T19:07:36.225Z,100874.00
2023-04-10T19:10:43.142Z,100893.03
2023-04-10T19:13:50.412Z,100883.47
2023-04-10T19:17:08.996Z,100888.28
2023-04-10T19:20:16.973Z,100900.75
2023-04-10T19:24:14.349Z,100888.16
2023-04-10T19:27:51.705Z,100893.84
2023-04-10T19:31:01.032Z,100895.38
2023-04-10T19:34:10.030Z,100895.66
2023-04-10T19:37:13.294Z,100888.44
2023-04-10T19:40:19.899Z,100888.63
2023-04-10T19:43:26.645Z,100839.78
2023-04-10T19:46:29.883Z,100857.34
2023-04-10T19:49:33.690Z,100847.28
2023-04-10T19:52:35.945Z,100849.94
2023-04-10T19:55:40.809Z,100878.69
2023-04-10T19:58:49.557Z,100871.59
2023-04-10T20:01:55.740Z,100871.78
2023-04-10T20:05:01.092Z,100842.09
2023-04-10T20:08:06.886Z,100868.81
2023-04-10T20:11:15.690Z,100864.22
2023-04-10T20:14:25.819Z,100837.34
2023-04-10T20:17:40.599Z,100845.22
2023-04-10T20:20:47.212Z,100839.63
2023-04-10T20:24:00.065Z,100839.63
2023-04-10T20:27:18.335Z,100853.56
2023-04-10T20:30:27.657Z,100823.41
2023-04-10T20:33:34.216Z,100853.41
2023-04-10T20:36:40.442Z,100835.53
2023-04-10T20:39:47.812Z,100855.69
2023-04-10T20:43:05.447Z,100830.78
2023-04-10T20:46:33.695Z,100829.31
2023-04-10T20:49:40.225Z,100803.69
2023-04-10T20:52:57.762Z,100829.97
2023-04-10T20:56:19.969Z,100796.31
2023-04-10T20:59:37.872Z,100810.91
2023-04-10T21:02:52.282Z,100829.25
2023-04-10T21:06:00.685Z,100827.47
2023-04-10T21:09:23.197Z,100840.41
2023-04-10T21:12:34.154Z,100823.31
2023-04-10T21:15:54.935Z,100833.81
2023-04-10T21:19:38.567Z,100801.13
2023-04-10T21:23:06.275Z,100839.28
2023-04-10T21:26:28.308Z,100800.09
2023-04-10T21:29:39.782Z,100814.50
2023-04-10T21:32:52.583Z,100833.84
2023-04-10T21:36:14.058Z,100795.34
2023-04-10T21:39:25.399Z,100827.53
2023-04-10T21:42:33.736Z,100819.19
2023-04-10T21:45:50.138Z,100801.44
2023-04-10T21:49:04.642Z,100817.31
2023-04-10T21:52:27.127Z,100823.22
2023-04-10T21:55:36.172Z,100815.44
2023-04-10T21:59:02.062Z,100813.44
2023-04-10T22:02:13.905Z,100806.09
2023-04-10T22:05:18.004Z,100810.22
2023-04-10T22:08:22.949Z,100805.94
2023-04-10T22:11:39.529Z,100797.03
2023-04-10T22:15:06.160Z,100800.75
2023-04-10T22:18:20.589Z,100789.22
2023-04-10T22:21:35.494Z,100797.78
2023-04-10T22:24:50.160Z,100797.38
2023-04-10T22:28:15.540Z,100797.44
2023-04-10T22:31:27.930Z,100796.09
2023-04-10T22:34:38.501Z,100761.47
2023-04-10T22:37:57.128Z,100745.41
2023-04-10T22:41:13.597Z,100782.66
2023-04-10T22:44:29.852Z,100789.34
2023-04-10T22:47:47.970Z,100779.41
2023-04-10T22:50:57.814Z,100771.53
2023-04-10T22:54:06.617Z,100779.63
2023-04-10T22:57:13.479Z,100784.88
2023-04-10T23:00:30.298Z,100779.94
2023-04-10T23:03:39.793Z,100763.31
2023-04-10T23:06:48.701Z,100749.50
2023-04-10T23:09:57.298Z,100760.66
2023-04-10T23:13:06.982Z,100755.13
2023-04-10T23:16:19.134Z,100785.72
2023-04-10T23:19:26.171Z,100779.69
2023-04-10T23:22:32.526Z,100757.19
2023-04-10T23:25:35.598Z,100744.19
2023-04-10T23:29:03.445Z,100765.53
2023-04-10T23:32:08.757Z,100762.03
2023-04-10T23:35:11.740Z,100745.09
2023-04-10T23:38:15.216Z,100761.28
2023-04-10T23:41:27.807Z,100730.47
2023-04-10T23:44:35.593Z,100717.09
2023-04-10T23:47:44.030Z,100744.09
2023-04-10T23:50:47.682Z,100731.72
2023-04-10T23:53:53.414Z,100717.25
2023-04-10T23:56:56.684Z,100709.94
